Svitzer Sines — CSYI4 — position and weather

sailwx.info

Track history (hours):
 
Tides and Currents Weather Stations Pressure Air Temp Water Temp Dewpoint Dewpoint Depression Visibility Wind Speed Wind Dir Waves Ship Positions

Svitzer Sines

Last reported at 2017-May-24 21:30 UTC. Time now 2017-May-24 21:31 UTC.
Position N 38°42' W 009°10'.

Length 28 m; draft 4.8 m.

Type: Other ship. MMSI: 263601890.

Date/timePositionNaut miles runAvg speedWind from/ knotsBaromVisibWave heightAir tempDewpointWater temp
2017-May-24 21:30N 38°42' W 009°10'0 0.0
2017-May-24 21:00N 38°42' W 009°10'0 0.0
2017-May-24 20:29N 38°42' W 009°10'0 0.0
2017-May-24 20:00N 38°42' W 009°10'0 0.0
2017-May-24 19:30N 38°42' W 009°10'0 0.0
2017-May-24 19:00N 38°42' W 009°10'0 0.0
2017-May-24 18:30N 38°42' W 009°10'0 0.0
2017-May-24 18:01N 38°42' W 009°10'0 0.0
2017-May-24 17:30N 38°42' W 009°10'0 0.0
2017-May-24 17:00N 38°42' W 009°10'0 0.0
2017-May-24 16:30N 38°42' W 009°10'0 0.0
2017-May-24 16:00N 38°42' W 009°10'0 0.0
2017-May-24 15:30N 38°42' W 009°10'0 0.0
2017-May-24 15:00N 38°42' W 009°10'0 0.0
2017-May-24 14:30N 38°42' W 009°10'0 0.0
2017-May-24 13:30N 38°42' W 009°10'2 4.4
2017-May-24 13:00N 38°40' W 009°09'0 0.2
2017-May-24 12:30N 38°40' W 009°09'1 3.0
2017-May-24 12:00N 38°42' W 009°09'1 1.7
2017-May-24 11:29N 38°42' W 009°10'0 0.0
2017-May-24 11:00N 38°42' W 009°10'0 0.0
2017-May-24 10:30N 38°42' W 009°10'0 0.0
2017-May-24 10:00N 38°42' W 009°10'1 2.7
2017-May-24 09:30N 38°41' W 009°11'3 5.1
2017-May-24 09:00N 38°41' W 009°14'0 0.1
2017-May-24 08:30N 38°41' W 009°14'0 0.5
2017-May-24 08:00N 38°41' W 009°14'1 1.7
2017-May-24 07:30N 38°41' W 009°15'0 1.0
2017-May-24 07:00N 38°41' W 009°15'0 0.4
2017-May-24 06:30N 38°41' W 009°16'2 3.0
2017-May-24 06:00N 38°41' W 009°14'3 6.8
2017-May-24 05:30N 38°42' W 009°10'0 0.0
2017-May-24 05:00N 38°42' W 009°10'0 0.0
2017-May-24 04:30N 38°42' W 009°10'0 0.0
2017-May-24 04:00N 38°42' W 009°10'0 0.0
2017-May-24 03:30N 38°42' W 009°10'0 0.0
2017-May-24 03:00N 38°42' W 009°10'0 0.0
2017-May-24 02:30N 38°42' W 009°10'0 0.0
2017-May-24 02:00N 38°42' W 009°10'0 0.0
2017-May-24 01:30N 38°42' W 009°10'0 0.0
2017-May-24 01:00N 38°42' W 009°10'0 0.0
2017-May-24 00:30N 38°42' W 009°10'0 0.0
2017-May-24 00:00N 38°42' W 009°10'0 0.0
2017-May-23 23:30N 38°42' W 009°10'0 0.0
2017-May-23 23:00N 38°42' W 009°10'0 0.0
2017-May-23 22:30N 38°42' W 009°10'0 0.0
2017-May-23 22:00N 38°42' W 009°10'0 0.0
2017-May-23 21:30N 38°42' W 009°10'0 0.0
2017-May-23 21:00N 38°42' W 009°10'0 0.0
2017-May-23 20:30N 38°42' W 009°10'0 0.0
2017-May-23 20:00N 38°42' W 009°10'0 0.0
2017-May-23 19:30N 38°42' W 009°10'0 0.0
2017-May-23 19:00N 38°42' W 009°10'0 0.7
2017-May-23 18:30N 38°42' W 009°10'0 0.0
2017-May-23 18:00N 38°42' W 009°10'0 0.8
2017-May-23 17:30N 38°42' W 009°10'0 0.1
2017-May-23 17:00N 38°42' W 009°10'0 0.0
2017-May-23 16:30N 38°42' W 009°10'0 0.0
2017-May-23 16:00N 38°42' W 009°10'0 0.0
2017-May-23 15:30N 38°42' W 009°10'0 0.0
2017-May-23 15:00N 38°42' W 009°10'0 0.0
2017-May-23 14:00N 38°42' W 009°10'0 0.9
2017-May-23 13:30N 38°42' W 009°10'1 2.1
2017-May-23 13:00N 38°41' W 009°11'1 3.0
2017-May-23 12:30N 38°42' W 009°10'0 0.9
2017-May-23 12:00N 38°42' W 009°10'0 1.0
2017-May-23 11:30N 38°42' W 009°10'0 0.0
2017-May-23 11:00N 38°42' W 009°10'0 0.0
2017-May-23 10:30N 38°42' W 009°10'0 0.0
2017-May-23 10:00N 38°42' W 009°10'0 0.0
2017-May-23 09:30N 38°42' W 009°10'0 0.0
2017-May-23 09:00N 38°42' W 009°10'0 0.0
2017-May-23 08:30N 38°42' W 009°10'0 0.0
2017-May-23 08:00N 38°42' W 009°10'0 0.0
2017-May-23 07:30N 38°42' W 009°10'0 0.0
2017-May-23 07:00N 38°42' W 009°10'0 0.0
2017-May-23 06:30N 38°42' W 009°10'0 0.6
2017-May-23 06:00N 38°42' W 009°10'1 1.5
2017-May-23 05:30N 38°42' W 009°11'1 2.1
2017-May-23 05:00N 38°42' W 009°10'0 0.0
2017-May-23 04:30N 38°42' W 009°10'0 0.0
2017-May-23 04:00N 38°42' W 009°10'0 0.0
2017-May-23 03:30N 38°42' W 009°10'0 0.0
2017-May-23 03:00N 38°42' W 009°10'0 0.0
2017-May-23 02:30N 38°42' W 009°10'0 0.0
2017-May-23 02:00N 38°42' W 009°10'0 0.0
2017-May-23 01:30N 38°42' W 009°10'0 0.0
2017-May-23 01:00N 38°42' W 009°10'0 0.0
2017-May-23 00:30N 38°42' W 009°10'0 0.0
2017-May-23 00:00N 38°42' W 009°10'0 0.0
2017-May-22 23:30N 38°42' W 009°10'0 0.0
2017-May-22 23:00N 38°42' W 009°10'0 0.0
2017-May-22 22:29N 38°42' W 009°10'0 0.0
2017-May-22 22:00N 38°42' W 009°10'0 0.0
2017-May-22 21:30N 38°42' W 009°10'0 0.0
2017-May-22 21:00N 38°42' W 009°10'0 0.0
2017-May-22 20:29N 38°42' W 009°10'0 0.0
2017-May-22 19:59N 38°42' W 009°10'0 0.5
2017-May-22 19:30N 38°42' W 009°09'2 3.8
2017-May-22 19:00N 38°40' W 009°09'1 2.3
2017-May-22 18:28N 38°41' W 009°09'1 1.6
2017-May-22 17:59N 38°42' W 009°10'0 0.0
2017-May-22 17:30N 38°42' W 009°10'0 0.0
2017-May-22 16:59N 38°42' W 009°10'0 0.0
2017-May-22 16:30N 38°42' W 009°10'0 0.0
2017-May-22 15:59N 38°42' W 009°10'0 0.0
2017-May-22 15:30N 38°42' W 009°10'0 0.0
2017-May-22 15:00N 38°42' W 009°10'2 2.1
2017-May-22 14:00N 38°40' W 009°09'0 0.2
2017-May-22 13:30N 38°40' W 009°09'2 3.4
2017-May-22 12:59N 38°42' W 009°09'0 0.8
2017-May-22 12:30N 38°42' W 009°10'0 0.0
2017-May-22 12:00N 38°42' W 009°10'0 0.1
2017-May-22 11:30N 38°42' W 009°10'2 3.5
2017-May-22 11:00N 38°43' W 009°07'1 1.7
2017-May-22 10:30N 38°43' W 009°06'3 4.9
2017-May-22 09:59N 38°42' W 009°10'0 0.0
2017-May-22 09:29N 38°42' W 009°10'0 0.0
2017-May-22 08:59N 38°42' W 009°10'0 0.0
2017-May-22 08:30N 38°42' W 009°10'0 0.5
2017-May-22 08:00N 38°42' W 009°09'2 3.7
2017-May-22 07:30N 38°40' W 009°09'1 2.3
2017-May-22 07:00N 38°41' W 009°09'1 1.5
2017-May-22 06:30N 38°42' W 009°09'0 0.7
2017-May-22 06:00N 38°42' W 009°10'0 0.0
2017-May-22 05:30N 38°42' W 009°10'0 0.0
2017-May-22 05:00N 38°42' W 009°10'0 0.0
2017-May-22 04:30N 38°42' W 009°10'0 0.0
2017-May-22 04:00N 38°42' W 009°10'0 0.0
2017-May-22 03:30N 38°42' W 009°10'0 0.0
2017-May-22 03:00N 38°42' W 009°10'0 0.0
2017-May-22 02:30N 38°42' W 009°10'0 0.0
2017-May-22 02:00N 38°42' W 009°10'0 0.0
2017-May-22 01:30N 38°42' W 009°10'0 0.0
2017-May-22 00:59N 38°42' W 009°10'0 0.0
2017-May-22 00:30N 38°42' W 009°10'0 0.0
2017-May-22 00:00N 38°42' W 009°10'0 0.0
2017-May-21 23:30N 38°42' W 009°10'0 0.0
2017-May-21 23:00N 38°42' W 009°10'0 0.0
2017-May-21 22:30N 38°42' W 009°10'0 0.0
2017-May-21 22:00N 38°42' W 009°10'0 0.6
2017-May-21 21:30N 38°42' W 009°10'0 0.2
2017-May-21 20:59N 38°42' W 009°10'0 0.5
2017-May-21 20:30N 38°42' W 009°10'0 0.1
2017-May-21 20:00N 38°42' W 009°10'0 0.0
2017-May-21 19:30N 38°42' W 009°10'0 0.0
2017-May-21 19:00N 38°42' W 009°10'0 0.0
2017-May-21 18:30N 38°42' W 009°10'0 0.0
2017-May-21 18:00N 38°42' W 009°10'0 0.0
2017-May-21 17:30N 38°42' W 009°10'0 0.0
2017-May-21 17:00N 38°42' W 009°10'0 0.0
2017-May-21 16:30N 38°42' W 009°10'0 0.0
2017-May-21 16:00N 38°42' W 009°10'0 0.0
2017-May-21 15:30N 38°42' W 009°10'0 0.0
2017-May-21 15:00N 38°42' W 009°10'0 0.0
2017-May-21 14:30N 38°42' W 009°10'0 0.0
2017-May-21 13:30N 38°42' W 009°10'0 0.0
2017-May-21 13:00N 38°42' W 009°10'0 0.0
2017-May-21 12:30N 38°42' W 009°10'0 0.0
2017-May-21 12:00N 38°42' W 009°10'0 0.1
2017-May-21 11:30N 38°42' W 009°10'3 3.6
2017-May-21 10:43N 38°43' W 009°06'1 5.3
2017-May-21 10:30N 38°43' W 009°07'3 6.3
2017-May-21 09:59N 38°41' W 009°11'1 2.4
2017-May-21 09:30N 38°42' W 009°10'0 0.7
2017-May-21 09:00N 38°42' W 009°10'0 0.0
2017-May-21 08:30N 38°42' W 009°10'0 0.0
2017-May-21 08:00N 38°42' W 009°10'0 0.0
2017-May-21 07:30N 38°42' W 009°10'0 0.0
2017-May-21 07:00N 38°42' W 009°10'0 0.0
2017-May-21 06:30N 38°42' W 009°10'0 0.6
2017-May-21 06:00N 38°42' W 009°10'0 0.7
2017-May-21 05:30N 38°42' W 009°10'1 2.2
2017-May-21 04:59N 38°42' W 009°11'1 2.6
2017-May-21 04:30N 38°42' W 009°10'0 0.0
2017-May-21 04:00N 38°42' W 009°10'0 0.0
2017-May-21 03:30N 38°42' W 009°10'0 0.0
2017-May-21 03:00N 38°42' W 009°10'0 0.0
2017-May-21 02:30N 38°42' W 009°10'0 0.0
2017-May-21 02:00N 38°42' W 009°10'0 0.0
2017-May-21 01:30N 38°42' W 009°10'0 0.0
2017-May-21 01:00N 38°42' W 009°10'0 0.0
2017-May-21 00:30N 38°42' W 009°10'0 0.0
2017-May-21 00:00N 38°42' W 009°10'0 0.0
2017-May-20 23:30N 38°42' W 009°10'0 0.0
2017-May-20 23:00N 38°42' W 009°10'0 0.0
2017-May-20 22:30N 38°42' W 009°10'0 0.0
2017-May-20 22:00N 38°42' W 009°10'0 0.0
2017-May-20 21:30N 38°42' W 009°10'0 0.0
2017-May-20 21:00N 38°42' W 009°10'0 0.0
2017-May-20 20:30N 38°42' W 009°10'0 0.0
2017-May-20 20:00N 38°42' W 009°10'0 0.0
2017-May-20 19:30N 38°42' W 009°10'0 0.0
2017-May-20 19:00N 38°42' W 009°10'0 0.0
2017-May-20 18:30N 38°42' W 009°10'0 0.0
2017-May-20 18:00N 38°42' W 009°10'0 0.0
2017-May-20 17:30N 38°42' W 009°10'0 0.0
2017-May-20 17:00N 38°42' W 009°10'0 0.0
2017-May-20 16:30N 38°42' W 009°10'0 0.0
2017-May-20 16:00N 38°42' W 009°10'0 0.0
2017-May-20 15:30N 38°42' W 009°10'0 0.0
2017-May-20 15:00N 38°42' W 009°10'0 0.0
2017-May-20 14:30N 38°42' W 009°10'0 0.0
2017-May-20 13:30N 38°42' W 009°10'0 0.0
2017-May-20 13:00N 38°42' W 009°10'0 0.0
2017-May-20 12:30N 38°42' W 009°10'0 0.0
2017-May-20 12:00N 38°42' W 009°10'0 0.0
2017-May-20 11:30N 38°42' W 009°10'0 0.0
2017-May-20 11:00N 38°42' W 009°10'0 0.0
2017-May-20 10:30N 38°42' W 009°10'0 0.0
2017-May-20 10:00N 38°42' W 009°10'0 0.0
2017-May-20 09:30N 38°42' W 009°10'2 3.7
2017-May-20 09:00N 38°41' W 009°11'2 3.9
2017-May-20 08:30N 38°42' W 009°09'0 0.3
2017-May-20 08:00N 38°42' W 009°10'0 0.0
2017-May-20 07:30N 38°42' W 009°10'0 0.0
2017-May-20 07:00N 38°42' W 009°10'0 0.0
2017-May-20 06:30N 38°42' W 009°10'0 0.0
2017-May-20 06:00N 38°42' W 009°10'0 0.0
2017-May-20 05:30N 38°42' W 009°10'0 0.0
2017-May-20 05:00N 38°42' W 009°10'0 0.0
2017-May-20 04:30N 38°42' W 009°10'0 0.0
2017-May-20 04:00N 38°42' W 009°10'0 0.0
2017-May-20 03:30N 38°42' W 009°10'0 0.0
2017-May-20 03:00N 38°42' W 009°10'0 0.0
2017-May-20 02:30N 38°42' W 009°10'0 0.0
2017-May-20 02:00N 38°42' W 009°10'0 0.0
2017-May-20 01:30N 38°42' W 009°10'0 0.0
2017-May-20 01:00N 38°42' W 009°10'0 0.0
2017-May-20 00:30N 38°42' W 009°10'0 0.1
2017-May-20 00:00N 38°42' W 009°10'2 3.6
2017-May-19 23:30N 38°41' W 009°11'0 0.4
2017-May-19 23:00N 38°41' W 009°11'2 3.8
2017-May-19 22:30N 38°42' W 009°10'0 0.0
2017-May-19 21:59N 38°42' W 009°10'2 4.1
2017-May-19 21:30N 38°41' W 009°12'1 1.7
2017-May-19 21:00N 38°41' W 009°13'3 5.3
2017-May-19 20:30N 38°42' W 009°10'0 0.4
2017-May-19 20:00N 38°42' W 009°10'0 0.0
2017-May-19 19:30N 38°42' W 009°10'0 0.0
2017-May-19 19:00N 38°42' W 009°10'0 0.0
2017-May-19 18:30N 38°42' W 009°10'0 0.0
2017-May-19 18:00N 38°42' W 009°10'0 0.0
2017-May-19 17:30N 38°42' W 009°10'0 0.0
2017-May-19 17:00N 38°42' W 009°10'0 0.0
2017-May-19 16:30N 38°42' W 009°10'0 0.0
2017-May-19 16:00N 38°42' W 009°10'0 0.0
2017-May-19 15:30N 38°42' W 009°10'0 0.0
2017-May-19 15:00N 38°42' W 009°10'0 0.0
2017-May-19 14:00N 38°42' W 009°10'0 0.0
2017-May-19 13:30N 38°42' W 009°10'0 0.0
2017-May-19 12:58N 38°42' W 009°10'0 0.0
2017-May-19 12:27N 38°42' W 009°10'0 0.0
2017-May-19 12:00N 38°42' W 009°10'0 0.0
2017-May-19 11:30N 38°42' W 009°10'0 0.0
2017-May-19 11:00N 38°42' W 009°10'0 0.0
2017-May-19 10:30N 38°42' W 009°10'0 0.0
2017-May-19 10:00N 38°42' W 009°10'0 0.0
2017-May-19 09:30N 38°42' W 009°10'0 0.1
2017-May-19 09:00N 38°42' W 009°10'1 2.6
2017-May-19 08:29N 38°42' W 009°11'5 9.1
2017-May-19 07:59N 38°41' W 009°17'4 9.5
2017-May-19 07:30N 38°38' W 009°21'4 7.7
2017-May-19 07:00N 38°34' W 009°22'4 8.6
2017-May-19 06:30N 38°30' W 009°20'4 8.4
2017-May-19 06:00N 38°26' W 009°18'4 7.9
2017-May-19 05:30N 38°23' W 009°15'4 8.0
2017-May-19 05:00N 38°19' W 009°13'4 8.5
2017-May-19 04:30N 38°15' W 009°10'4 8.4
2017-May-19 04:00N 38°12' W 009°08'4 8.3
2017-May-19 03:30N 38°08' W 009°05'4 8.1
2017-May-19 03:00N 38°05' W 009°02'4 8.0
2017-May-19 02:30N 38°02' W 008°59'4 7.6
2017-May-19 02:00N 37°59' W 008°56'4 7.8
2017-May-19 01:30N 37°55' W 008°53'2 4.2
2017-May-19 01:00N 37°56' W 008°51'0 0.1
2017-May-19 00:30N 37°56' W 008°51'1 1.4
2017-May-19 00:00N 37°55' W 008°50'1 1.1
2017-May-18 23:30N 37°55' W 008°51'2 3.4
2017-May-18 23:00N 37°57' W 008°52'0 0.0
2017-May-18 22:30N 37°57' W 008°52'0 0.0
2017-May-18 22:00N 37°57' W 008°52'0 0.0
2017-May-18 21:30N 37°57' W 008°52'0 0.0
2017-May-18 21:00N 37°57' W 008°52'0 0.0
2017-May-18 20:30N 37°57' W 008°52'2 4.8
2017-May-18 20:00N 37°56' W 008°54'5 9.7
2017-May-18 19:30N 37°60' W 008°57'5 9.4
2017-May-18 19:00N 38°04' W 009°00'5 9.4
2017-May-18 18:30N 38°08' W 009°04'5 9.7
2017-May-18 18:00N 38°12' W 009°07'5 9.5
2017-May-18 17:30N 38°16' W 009°10'5 9.8
2017-May-18 17:00N 38°20' W 009°14'5 9.9
2017-May-18 16:30N 38°24' W 009°17'5 9.7
2017-May-18 16:01N 38°29' W 009°20'5 9.3
2017-May-18 15:30N 38°33' W 009°22'4 8.3
2017-May-18 15:00N 38°37' W 009°23'5 9.9
2017-May-18 14:30N 38°40' W 009°18'7 7.0
2017-May-18 13:30N 38°42' W 009°10'0 0.0
2017-May-18 13:00N 38°42' W 009°10'0 0.0
2017-May-18 12:30N 38°42' W 009°10'0 0.0
2017-May-18 11:59N 38°42' W 009°10'0 0.0
2017-May-18 11:30N 38°42' W 009°10'0 0.0
2017-May-18 11:00N 38°42' W 009°10'0 0.0
2017-May-18 10:30N 38°42' W 009°10'0 0.0
2017-May-18 10:00N 38°42' W 009°10'0 0.0
2017-May-18 09:30N 38°42' W 009°10'0 0.0
2017-May-18 09:00N 38°42' W 009°10'0 0.0
2017-May-18 08:30N 38°42' W 009°10'1 1.5
2017-May-18 08:00N 38°42' W 009°09'4 8.2
2017-May-18 07:30N 38°41' W 009°04'1 2.0
2017-May-18 07:00N 38°41' W 009°05'4 7.3
2017-May-18 06:30N 38°42' W 009°09'0 0.8
2017-May-18 06:00N 38°42' W 009°10'0 0.0
2017-May-18 05:30N 38°42' W 009°10'0 0.0
2017-May-18 04:59N 38°42' W 009°10'0 0.0
2017-May-18 04:30N 38°42' W 009°10'0 0.0
2017-May-18 04:00N 38°42' W 009°10'0 0.0
2017-May-18 03:30N 38°42' W 009°10'0 0.0
2017-May-18 03:00N 38°42' W 009°10'0 0.0
2017-May-18 02:30N 38°42' W 009°10'0 0.0
2017-May-18 02:00N 38°42' W 009°10'0 0.0
2017-May-18 01:30N 38°42' W 009°10'0 0.0
2017-May-18 00:59N 38°42' W 009°10'0 0.0
2017-May-18 00:29N 38°42' W 009°10'0 0.3
2017-May-17 23:59N 38°42' W 009°09'1 1.2
2017-May-17 23:30N 38°42' W 009°10'0 0.9
2017-May-17 23:00N 38°42' W 009°10'0 0.0
2017-May-17 22:30N 38°42' W 009°10'0 0.0
2017-May-17 22:00N 38°42' W 009°10'0 0.0
2017-May-17 21:30N 38°42' W 009°10'0 0.0
2017-May-17 21:00N 38°42' W 009°10'0 0.0
2017-May-17 20:30N 38°42' W 009°10'0 0.0
2017-May-17 20:00N 38°42' W 009°10'0 0.0
2017-May-17 19:30N 38°42' W 009°10'0 0.0
2017-May-17 19:00N 38°42' W 009°10'0 0.0
2017-May-17 18:30N 38°42' W 009°10'0 0.0
2017-May-17 18:00N 38°42' W 009°10'0 0.0
2017-May-17 17:30N 38°42' W 009°10'0 0.0
2017-May-17 17:00N 38°42' W 009°10'0 0.6
2017-May-17 16:30N 38°42' W 009°10'1 1.1
2017-May-17 16:00N 38°41' W 009°10'1 1.1
2017-May-17 15:30N 38°42' W 009°10'0 0.9
2017-May-17 15:00N 38°42' W 009°10'0 0.0
2017-May-17 14:00N 38°42' W 009°10'0 0.0
2017-May-17 13:30N 38°42' W 009°10'0 0.0
2017-May-17 13:00N 38°42' W 009°10'0 0.0
2017-May-17 12:30N 38°42' W 009°10'0 0.0
2017-May-17 12:00N 38°42' W 009°10'0 0.0
2017-May-17 11:30N 38°42' W 009°10'0 0.0
2017-May-17 11:00N 38°42' W 009°10'0 0.0
2017-May-17 10:30N 38°42' W 009°10'0 0.0
2017-May-17 10:00N 38°42' W 009°10'0 0.0
2017-May-17 09:30N 38°42' W 009°10'1 1.5
2017-May-17 09:00N 38°42' W 009°11'1 1.5
2017-May-17 08:30N 38°42' W 009°10'0 0.0
2017-May-17 08:00N 38°42' W 009°10'0 0.0
2017-May-17 07:30N 38°42' W 009°10'0 0.0
2017-May-17 07:00N 38°42' W 009°10'2 3.9
2017-May-17 06:30N 38°40' W 009°08'0 0.4
2017-May-17 06:00N 38°40' W 009°09'0 0.0
2017-May-17 05:30N 38°40' W 009°09'2 3.8
2017-May-17 05:00N 38°42' W 009°09'0 0.3
2017-May-17 04:30N 38°42' W 009°10'0 0.0
2017-May-17 04:00N 38°42' W 009°10'0 0.0
2017-May-17 03:30N 38°42' W 009°10'0 0.0
2017-May-17 03:00N 38°42' W 009°10'0 0.0
2017-May-17 02:30N 38°42' W 009°10'0 0.0
2017-May-17 02:00N 38°42' W 009°10'0 0.0
2017-May-17 01:30N 38°42' W 009°10'0 0.0
2017-May-17 01:00N 38°42' W 009°10'0 0.0
2017-May-17 00:30N 38°42' W 009°10'0 0.0
2017-May-17 00:00N 38°42' W 009°10'0 0.0
2017-May-16 23:30N 38°42' W 009°10'0 0.0
2017-May-16 23:00N 38°42' W 009°10'0 0.0
2017-May-16 22:30N 38°42' W 009°10'0 0.0
2017-May-16 22:00N 38°42' W 009°10'0 0.0
2017-May-16 21:30N 38°42' W 009°10'0 0.0
2017-May-16 21:00N 38°42' W 009°10'0 0.0
2017-May-16 20:30N 38°42' W 009°10'0 0.0
2017-May-16 20:00N 38°42' W 009°10'0 0.0
2017-May-16 19:30N 38°42' W 009°10'0 0.0
2017-May-16 19:00N 38°42' W 009°10'0 0.0
2017-May-16 18:30N 38°42' W 009°10'0 0.0
2017-May-16 18:00N 38°42' W 009°10'0 0.0
2017-May-16 17:30N 38°42' W 009°10'0 0.0
2017-May-16 17:00N 38°42' W 009°10'0 0.0
2017-May-16 16:30N 38°42' W 009°10'0 0.0
2017-May-16 16:00N 38°42' W 009°10'0 0.0
2017-May-16 15:30N 38°42' W 009°10'0 0.0
2017-May-16 15:00N 38°42' W 009°10'0 0.0
2017-May-16 14:30N 38°42' W 009°10'0 0.0
2017-May-16 13:30N 38°42' W 009°10'0 0.0
2017-May-16 13:00N 38°42' W 009°10'0 0.0
2017-May-16 12:30N 38°42' W 009°10'0 0.0
2017-May-16 12:00N 38°42' W 009°10'0 0.0
2017-May-16 11:30N 38°42' W 009°10'0 0.0
2017-May-16 11:00N 38°42' W 009°10'0 0.0
2017-May-16 10:30N 38°42' W 009°10'0 0.0
2017-May-16 10:00N 38°42' W 009°10'0 0.0
2017-May-16 09:30N 38°42' W 009°10'0 0.0
2017-May-16 09:00N 38°42' W 009°10'0 0.0
2017-May-16 08:30N 38°42' W 009°10'0 0.0
2017-May-16 08:00N 38°42' W 009°10'0 0.0
2017-May-16 07:30N 38°42' W 009°10'0 0.0
2017-May-16 07:00N 38°42' W 009°10'0 0.0
2017-May-16 06:30N 38°42' W 009°10'0 0.0
2017-May-16 06:00N 38°42' W 009°10'0 0.0
2017-May-16 05:30N 38°42' W 009°10'0 0.0
2017-May-16 05:00N 38°42' W 009°10'0 0.0
2017-May-16 04:30N 38°42' W 009°10'0 0.0
2017-May-16 04:00N 38°42' W 009°10'0 0.0
2017-May-16 03:30N 38°42' W 009°10'0 0.0
2017-May-16 03:00N 38°42' W 009°10'0 0.0
2017-May-16 02:30N 38°42' W 009°10'0 0.0
2017-May-16 02:00N 38°42' W 009°10'0 0.0
2017-May-16 01:30N 38°42' W 009°10'0 0.0
2017-May-16 01:00N 38°42' W 009°10'0 0.0
2017-May-16 00:30N 38°42' W 009°10'0 0.0
2017-May-16 00:00N 38°42' W 009°10'0 0.0
2017-May-15 23:30N 38°42' W 009°10'0 0.0
2017-May-15 23:00N 38°42' W 009°10'0 0.0
2017-May-15 22:30N 38°42' W 009°10'0 0.0
2017-May-15 22:00N 38°42' W 009°10'0 0.0
2017-May-15 21:30N 38°42' W 009°10'0 0.0
2017-May-15 21:00N 38°42' W 009°10'0 0.0
2017-May-15 20:30N 38°42' W 009°10'0 0.0
2017-May-15 20:00N 38°42' W 009°10'0 0.0
2017-May-15 19:30N 38°42' W 009°10'0 0.0
2017-May-15 19:00N 38°42' W 009°10'0 0.0
2017-May-15 18:30N 38°42' W 009°10'0 0.0
2017-May-15 17:59N 38°42' W 009°10'0 0.0
2017-May-15 17:30N 38°42' W 009°10'0 0.0
2017-May-15 17:00N 38°42' W 009°10'0 0.0
2017-May-15 16:30N 38°42' W 009°10'0 0.1
2017-May-15 15:23N 38°42' W 009°10'0 0.2
2017-May-15 15:00N 38°42' W 009°10'0 0.0
2017-May-15 13:59N 38°42' W 009°10'0 0.0
2017-May-15 13:30N 38°42' W 009°10'0 0.0
2017-May-15 13:00N 38°42' W 009°10'0 0.0
2017-May-15 12:31N 38°42' W 009°10'0 0.0
2017-May-15 12:00N 38°42' W 009°10'0 0.0
2017-May-15 11:30N 38°42' W 009°10'2 3.2
2017-May-15 11:01N 38°41' W 009°08'1 1.7
2017-May-15 10:30N 38°40' W 009°09'2 3.6
2017-May-15 10:00N 38°42' W 009°09'0 0.5
2017-May-15 09:30N 38°42' W 009°10'0 0.0
2017-May-15 09:00N 38°42' W 009°10'0 0.0
2017-May-15 08:30N 38°42' W 009°10'0 0.0
2017-May-15 08:00N 38°42' W 009°10'0 0.0
2017-May-15 07:30N 38°42' W 009°10'0 0.0
2017-May-15 07:00N 38°42' W 009°10'0 0.0
2017-May-15 06:30N 38°42' W 009°10'0 0.9
2017-May-15 06:00N 38°42' W 009°10'1 2.3
2017-May-15 05:30N 38°41' W 009°11'0 0.1
2017-May-15 05:00N 38°41' W 009°11'1 1.6
2017-May-15 04:30N 38°41' W 009°12'1 1.9
2017-May-15 04:00N 38°41' W 009°11'1 2.4
2017-May-15 03:31N 38°42' W 009°10'0 0.0
2017-May-15 03:01N 38°42' W 009°10'0 0.0
2017-May-15 02:30N 38°42' W 009°10'0 0.0
2017-May-15 02:00N 38°42' W 009°10'0 0.0
2017-May-15 01:30N 38°42' W 009°10'0 0.0
2017-May-15 01:00N 38°42' W 009°10'0 0.0
2017-May-15 00:30N 38°42' W 009°10'0 0.0
2017-May-15 00:00N 38°42' W 009°10'0 0.0
2017-May-14 23:31N 38°42' W 009°10'0 0.0
2017-May-14 23:00N 38°42' W 009°10'0 0.0
2017-May-14 22:30N 38°42' W 009°10'0 0.0
2017-May-14 22:00N 38°42' W 009°10'0 0.2
2017-May-14 21:30N 38°42' W 009°09'  
Track history (hours):
 
Tides and Currents Weather Stations Pressure Air Temp Water Temp Dewpoint Dewpoint Depression Visibility Wind Speed Wind Dir Waves Ship Positions

Svitzer Sines

Last reported at 2017-May-24 21:30 UTC. Time now 2017-May-24 21:31 UTC.
Position N 38°42' W 009°10'.

Length 28 m; draft 4.8 m.

Type: Other ship. MMSI: 263601890.

Date/timePositionNaut miles runAvg speedWind from/ knotsBaromVisibWave heightAir tempDewpointWater temp
2017-May-24 21:30N 38°42' W 009°10'0 0.0
2017-May-24 21:00N 38°42' W 009°10'0 0.0
2017-May-24 20:29N 38°42' W 009°10'0 0.0
2017-May-24 20:00N 38°42' W 009°10'0 0.0
2017-May-24 19:30N 38°42' W 009°10'0 0.0
2017-May-24 19:00N 38°42' W 009°10'0 0.0
2017-May-24 18:30N 38°42' W 009°10'0 0.0
2017-May-24 18:01N 38°42' W 009°10'0 0.0
2017-May-24 17:30N 38°42' W 009°10'0 0.0
2017-May-24 17:00N 38°42' W 009°10'0 0.0
2017-May-24 16:30N 38°42' W 009°10'0 0.0
2017-May-24 16:00N 38°42' W 009°10'0 0.0
2017-May-24 15:30N 38°42' W 009°10'0 0.0
2017-May-24 15:00N 38°42' W 009°10'0 0.0
2017-May-24 14:30N 38°42' W 009°10'0 0.0
2017-May-24 13:30N 38°42' W 009°10'2 4.4
2017-May-24 13:00N 38°40' W 009°09'0 0.2
2017-May-24 12:30N 38°40' W 009°09'1 3.0
2017-May-24 12:00N 38°42' W 009°09'1 1.7
2017-May-24 11:29N 38°42' W 009°10'0 0.0
2017-May-24 11:00N 38°42' W 009°10'0 0.0
2017-May-24 10:30N 38°42' W 009°10'0 0.0
2017-May-24 10:00N 38°42' W 009°10'1 2.7
2017-May-24 09:30N 38°41' W 009°11'3 5.1
2017-May-24 09:00N 38°41' W 009°14'0 0.1
2017-May-24 08:30N 38°41' W 009°14'0 0.5
2017-May-24 08:00N 38°41' W 009°14'1 1.7
2017-May-24 07:30N 38°41' W 009°15'0 1.0
2017-May-24 07:00N 38°41' W 009°15'0 0.4
2017-May-24 06:30N 38°41' W 009°16'2 3.0
2017-May-24 06:00N 38°41' W 009°14'3 6.8
2017-May-24 05:30N 38°42' W 009°10'0 0.0
2017-May-24 05:00N 38°42' W 009°10'0 0.0
2017-May-24 04:30N 38°42' W 009°10'0 0.0
2017-May-24 04:00N 38°42' W 009°10'0 0.0
2017-May-24 03:30N 38°42' W 009°10'0 0.0
2017-May-24 03:00N 38°42' W 009°10'0 0.0
2017-May-24 02:30N 38°42' W 009°10'0 0.0
2017-May-24 02:00N 38°42' W 009°10'0 0.0
2017-May-24 01:30N 38°42' W 009°10'0 0.0
2017-May-24 01:00N 38°42' W 009°10'0 0.0
2017-May-24 00:30N 38°42' W 009°10'0 0.0
2017-May-24 00:00N 38°42' W 009°10'0 0.0
2017-May-23 23:30N 38°42' W 009°10'0 0.0
2017-May-23 23:00N 38°42' W 009°10'0 0.0
2017-May-23 22:30N 38°42' W 009°10'0 0.0
2017-May-23 22:00N 38°42' W 009°10'0 0.0
2017-May-23 21:30N 38°42' W 009°10'0 0.0
2017-May-23 21:00N 38°42' W 009°10'0 0.0
2017-May-23 20:30N 38°42' W 009°10'0 0.0
2017-May-23 20:00N 38°42' W 009°10'0 0.0
2017-May-23 19:30N 38°42' W 009°10'0 0.0
2017-May-23 19:00N 38°42' W 009°10'0 0.7
2017-May-23 18:30N 38°42' W 009°10'0 0.0
2017-May-23 18:00N 38°42' W 009°10'0 0.8
2017-May-23 17:30N 38°42' W 009°10'0 0.1
2017-May-23 17:00N 38°42' W 009°10'0 0.0
2017-May-23 16:30N 38°42' W 009°10'0 0.0
2017-May-23 16:00N 38°42' W 009°10'0 0.0
2017-May-23 15:30N 38°42' W 009°10'0 0.0
2017-May-23 15:00N 38°42' W 009°10'0 0.0
2017-May-23 14:00N 38°42' W 009°10'0 0.9
2017-May-23 13:30N 38°42' W 009°10'1 2.1
2017-May-23 13:00N 38°41' W 009°11'1 3.0
2017-May-23 12:30N 38°42' W 009°10'0 0.9
2017-May-23 12:00N 38°42' W 009°10'0 1.0
2017-May-23 11:30N 38°42' W 009°10'0 0.0
2017-May-23 11:00N 38°42' W 009°10'0 0.0
2017-May-23 10:30N 38°42' W 009°10'0 0.0
2017-May-23 10:00N 38°42' W 009°10'0 0.0
2017-May-23 09:30N 38°42' W 009°10'0 0.0
2017-May-23 09:00N 38°42' W 009°10'0 0.0
2017-May-23 08:30N 38°42' W 009°10'0 0.0
2017-May-23 08:00N 38°42' W 009°10'0 0.0
2017-May-23 07:30N 38°42' W 009°10'0 0.0
2017-May-23 07:00N 38°42' W 009°10'0 0.0
2017-May-23 06:30N 38°42' W 009°10'0 0.6
2017-May-23 06:00N 38°42' W 009°10'1 1.5
2017-May-23 05:30N 38°42' W 009°11'1 2.1
2017-May-23 05:00N 38°42' W 009°10'0 0.0
2017-May-23 04:30N 38°42' W 009°10'0 0.0
2017-May-23 04:00N 38°42' W 009°10'0 0.0
2017-May-23 03:30N 38°42' W 009°10'0 0.0
2017-May-23 03:00N 38°42' W 009°10'0 0.0
2017-May-23 02:30N 38°42' W 009°10'0 0.0
2017-May-23 02:00N 38°42' W 009°10'0 0.0
2017-May-23 01:30N 38°42' W 009°10'0 0.0
2017-May-23 01:00N 38°42' W 009°10'0 0.0
2017-May-23 00:30N 38°42' W 009°10'0 0.0
2017-May-23 00:00N 38°42' W 009°10'0 0.0
2017-May-22 23:30N 38°42' W 009°10'0 0.0
2017-May-22 23:00N 38°42' W 009°10'0 0.0
2017-May-22 22:29N 38°42' W 009°10'0 0.0
2017-May-22 22:00N 38°42' W 009°10'0 0.0
2017-May-22 21:30N 38°42' W 009°10'0 0.0
2017-May-22 21:00N 38°42' W 009°10'0 0.0
2017-May-22 20:29N 38°42' W 009°10'0 0.0
2017-May-22 19:59N 38°42' W 009°10'0 0.5
2017-May-22 19:30N 38°42' W 009°09'2 3.8
2017-May-22 19:00N 38°40' W 009°09'1 2.3
2017-May-22 18:28N 38°41' W 009°09'1 1.6
2017-May-22 17:59N 38°42' W 009°10'0 0.0
2017-May-22 17:30N 38°42' W 009°10'0 0.0
2017-May-22 16:59N 38°42' W 009°10'0 0.0
2017-May-22 16:30N 38°42' W 009°10'0 0.0
2017-May-22 15:59N 38°42' W 009°10'0 0.0
2017-May-22 15:30N 38°42' W 009°10'0 0.0
2017-May-22 15:00N 38°42' W 009°10'2 2.1
2017-May-22 14:00N 38°40' W 009°09'0 0.2
2017-May-22 13:30N 38°40' W 009°09'2 3.4
2017-May-22 12:59N 38°42' W 009°09'0 0.8
2017-May-22 12:30N 38°42' W 009°10'0 0.0
2017-May-22 12:00N 38°42' W 009°10'0 0.1
2017-May-22 11:30N 38°42' W 009°10'2 3.5
2017-May-22 11:00N 38°43' W 009°07'1 1.7
2017-May-22 10:30N 38°43' W 009°06'3 4.9
2017-May-22 09:59N 38°42' W 009°10'0 0.0
2017-May-22 09:29N 38°42' W 009°10'0 0.0
2017-May-22 08:59N 38°42' W 009°10'0 0.0
2017-May-22 08:30N 38°42' W 009°10'0 0.5
2017-May-22 08:00N 38°42' W 009°09'2 3.7
2017-May-22 07:30N 38°40' W 009°09'1 2.3
2017-May-22 07:00N 38°41' W 009°09'1 1.5
2017-May-22 06:30N 38°42' W 009°09'0 0.7
2017-May-22 06:00N 38°42' W 009°10'0 0.0
2017-May-22 05:30N 38°42' W 009°10'0 0.0
2017-May-22 05:00N 38°42' W 009°10'0 0.0
2017-May-22 04:30N 38°42' W 009°10'0 0.0
2017-May-22 04:00N 38°42' W 009°10'0 0.0
2017-May-22 03:30N 38°42' W 009°10'0 0.0
2017-May-22 03:00N 38°42' W 009°10'0 0.0
2017-May-22 02:30N 38°42' W 009°10'0 0.0
2017-May-22 02:00N 38°42' W 009°10'0 0.0
2017-May-22 01:30N 38°42' W 009°10'0 0.0
2017-May-22 00:59N 38°42' W 009°10'0 0.0
2017-May-22 00:30N 38°42' W 009°10'0 0.0
2017-May-22 00:00N 38°42' W 009°10'0 0.0
2017-May-21 23:30N 38°42' W 009°10'0 0.0
2017-May-21 23:00N 38°42' W 009°10'0 0.0
2017-May-21 22:30N 38°42' W 009°10'0 0.0
2017-May-21 22:00N 38°42' W 009°10'0 0.6
2017-May-21 21:30N 38°42' W 009°10'0 0.2
2017-May-21 20:59N 38°42' W 009°10'0 0.5
2017-May-21 20:30N 38°42' W 009°10'0 0.1
2017-May-21 20:00N 38°42' W 009°10'0 0.0
2017-May-21 19:30N 38°42' W 009°10'0 0.0
2017-May-21 19:00N 38°42' W 009°10'0 0.0
2017-May-21 18:30N 38°42' W 009°10'0 0.0
2017-May-21 18:00N 38°42' W 009°10'0 0.0
2017-May-21 17:30N 38°42' W 009°10'0 0.0
2017-May-21 17:00N 38°42' W 009°10'0 0.0
2017-May-21 16:30N 38°42' W 009°10'0 0.0
2017-May-21 16:00N 38°42' W 009°10'0 0.0
2017-May-21 15:30N 38°42' W 009°10'0 0.0
2017-May-21 15:00N 38°42' W 009°10'0 0.0
2017-May-21 14:30N 38°42' W 009°10'0 0.0
2017-May-21 13:30N 38°42' W 009°10'0 0.0
2017-May-21 13:00N 38°42' W 009°10'0 0.0
2017-May-21 12:30N 38°42' W 009°10'0 0.0
2017-May-21 12:00N 38°42' W 009°10'0 0.1
2017-May-21 11:30N 38°42' W 009°10'3 3.6
2017-May-21 10:43N 38°43' W 009°06'1 5.3
2017-May-21 10:30N 38°43' W 009°07'3 6.3
2017-May-21 09:59N 38°41' W 009°11'1 2.4
2017-May-21 09:30N 38°42' W 009°10'0 0.7
2017-May-21 09:00N 38°42' W 009°10'0 0.0
2017-May-21 08:30N 38°42' W 009°10'0 0.0
2017-May-21 08:00N 38°42' W 009°10'0 0.0
2017-May-21 07:30N 38°42' W 009°10'0 0.0
2017-May-21 07:00N 38°42' W 009°10'0 0.0
2017-May-21 06:30N 38°42' W 009°10'0 0.6
2017-May-21 06:00N 38°42' W 009°10'0 0.7
2017-May-21 05:30N 38°42' W 009°10'1 2.2
2017-May-21 04:59N 38°42' W 009°11'1 2.6
2017-May-21 04:30N 38°42' W 009°10'0 0.0
2017-May-21 04:00N 38°42' W 009°10'0 0.0
2017-May-21 03:30N 38°42' W 009°10'0 0.0
2017-May-21 03:00N 38°42' W 009°10'0 0.0
2017-May-21 02:30N 38°42' W 009°10'0 0.0
2017-May-21 02:00N 38°42' W 009°10'0 0.0
2017-May-21 01:30N 38°42' W 009°10'0 0.0
2017-May-21 01:00N 38°42' W 009°10'0 0.0
2017-May-21 00:30N 38°42' W 009°10'0 0.0
2017-May-21 00:00N 38°42' W 009°10'0 0.0
2017-May-20 23:30N 38°42' W 009°10'0 0.0
2017-May-20 23:00N 38°42' W 009°10'0 0.0
2017-May-20 22:30N 38°42' W 009°10'0 0.0
2017-May-20 22:00N 38°42' W 009°10'0 0.0
2017-May-20 21:30N 38°42' W 009°10'0 0.0
2017-May-20 21:00N 38°42' W 009°10'0 0.0
2017-May-20 20:30N 38°42' W 009°10'0 0.0
2017-May-20 20:00N 38°42' W 009°10'0 0.0
2017-May-20 19:30N 38°42' W 009°10'0 0.0
2017-May-20 19:00N 38°42' W 009°10'0 0.0
2017-May-20 18:30N 38°42' W 009°10'0 0.0
2017-May-20 18:00N 38°42' W 009°10'0 0.0
2017-May-20 17:30N 38°42' W 009°10'0 0.0
2017-May-20 17:00N 38°42' W 009°10'0 0.0
2017-May-20 16:30N 38°42' W 009°10'0 0.0
2017-May-20 16:00N 38°42' W 009°10'0 0.0
2017-May-20 15:30N 38°42' W 009°10'0 0.0
2017-May-20 15:00N 38°42' W 009°10'0 0.0
2017-May-20 14:30N 38°42' W 009°10'0 0.0
2017-May-20 13:30N 38°42' W 009°10'0 0.0
2017-May-20 13:00N 38°42' W 009°10'0 0.0
2017-May-20 12:30N 38°42' W 009°10'0 0.0
2017-May-20 12:00N 38°42' W 009°10'0 0.0
2017-May-20 11:30N 38°42' W 009°10'0 0.0
2017-May-20 11:00N 38°42' W 009°10'0 0.0
2017-May-20 10:30N 38°42' W 009°10'0 0.0
2017-May-20 10:00N 38°42' W 009°10'0 0.0
2017-May-20 09:30N 38°42' W 009°10'2 3.7
2017-May-20 09:00N 38°41' W 009°11'2 3.9
2017-May-20 08:30N 38°42' W 009°09'0 0.3
2017-May-20 08:00N 38°42' W 009°10'0 0.0
2017-May-20 07:30N 38°42' W 009°10'0 0.0
2017-May-20 07:00N 38°42' W 009°10'0 0.0
2017-May-20 06:30N 38°42' W 009°10'0 0.0
2017-May-20 06:00N 38°42' W 009°10'0 0.0
2017-May-20 05:30N 38°42' W 009°10'0 0.0
2017-May-20 05:00N 38°42' W 009°10'0 0.0
2017-May-20 04:30N 38°42' W 009°10'0 0.0
2017-May-20 04:00N 38°42' W 009°10'0 0.0
2017-May-20 03:30N 38°42' W 009°10'0 0.0
2017-May-20 03:00N 38°42' W 009°10'0 0.0
2017-May-20 02:30N 38°42' W 009°10'0 0.0
2017-May-20 02:00N 38°42' W 009°10'0 0.0
2017-May-20 01:30N 38°42' W 009°10'0 0.0
2017-May-20 01:00N 38°42' W 009°10'0 0.0
2017-May-20 00:30N 38°42' W 009°10'0 0.1
2017-May-20 00:00N 38°42' W 009°10'2 3.6
2017-May-19 23:30N 38°41' W 009°11'0 0.4
2017-May-19 23:00N 38°41' W 009°11'2 3.8
2017-May-19 22:30N 38°42' W 009°10'0 0.0
2017-May-19 21:59N 38°42' W 009°10'2 4.1
2017-May-19 21:30N 38°41' W 009°12'1 1.7
2017-May-19 21:00N 38°41' W 009°13'3 5.3
2017-May-19 20:30N 38°42' W 009°10'0 0.4
2017-May-19 20:00N 38°42' W 009°10'0 0.0
2017-May-19 19:30N 38°42' W 009°10'0 0.0
2017-May-19 19:00N 38°42' W 009°10'0 0.0
2017-May-19 18:30N 38°42' W 009°10'0 0.0
2017-May-19 18:00N 38°42' W 009°10'0 0.0
2017-May-19 17:30N 38°42' W 009°10'0 0.0
2017-May-19 17:00N 38°42' W 009°10'0 0.0
2017-May-19 16:30N 38°42' W 009°10'0 0.0
2017-May-19 16:00N 38°42' W 009°10'0 0.0
2017-May-19 15:30N 38°42' W 009°10'0 0.0
2017-May-19 15:00N 38°42' W 009°10'0 0.0
2017-May-19 14:00N 38°42' W 009°10'0 0.0
2017-May-19 13:30N 38°42' W 009°10'0 0.0
2017-May-19 12:58N 38°42' W 009°10'0 0.0
2017-May-19 12:27N 38°42' W 009°10'0 0.0
2017-May-19 12:00N 38°42' W 009°10'0 0.0
2017-May-19 11:30N 38°42' W 009°10'0 0.0
2017-May-19 11:00N 38°42' W 009°10'0 0.0
2017-May-19 10:30N 38°42' W 009°10'0 0.0
2017-May-19 10:00N 38°42' W 009°10'0 0.0
2017-May-19 09:30N 38°42' W 009°10'0 0.1
2017-May-19 09:00N 38°42' W 009°10'1 2.6
2017-May-19 08:29N 38°42' W 009°11'5 9.1
2017-May-19 07:59N 38°41' W 009°17'4 9.5
2017-May-19 07:30N 38°38' W 009°21'4 7.7
2017-May-19 07:00N 38°34' W 009°22'4 8.6
2017-May-19 06:30N 38°30' W 009°20'4 8.4
2017-May-19 06:00N 38°26' W 009°18'4 7.9
2017-May-19 05:30N 38°23' W 009°15'4 8.0
2017-May-19 05:00N 38°19' W 009°13'4 8.5
2017-May-19 04:30N 38°15' W 009°10'4 8.4
2017-May-19 04:00N 38°12' W 009°08'4 8.3
2017-May-19 03:30N 38°08' W 009°05'4 8.1
2017-May-19 03:00N 38°05' W 009°02'4 8.0
2017-May-19 02:30N 38°02' W 008°59'4 7.6
2017-May-19 02:00N 37°59' W 008°56'4 7.8
2017-May-19 01:30N 37°55' W 008°53'2 4.2
2017-May-19 01:00N 37°56' W 008°51'0 0.1
2017-May-19 00:30N 37°56' W 008°51'1 1.4
2017-May-19 00:00N 37°55' W 008°50'1 1.1
2017-May-18 23:30N 37°55' W 008°51'2 3.4
2017-May-18 23:00N 37°57' W 008°52'0 0.0
2017-May-18 22:30N 37°57' W 008°52'0 0.0
2017-May-18 22:00N 37°57' W 008°52'0 0.0
2017-May-18 21:30N 37°57' W 008°52'0 0.0
2017-May-18 21:00N 37°57' W 008°52'0 0.0
2017-May-18 20:30N 37°57' W 008°52'2 4.8
2017-May-18 20:00N 37°56' W 008°54'5 9.7
2017-May-18 19:30N 37°60' W 008°57'5 9.4
2017-May-18 19:00N 38°04' W 009°00'5 9.4
2017-May-18 18:30N 38°08' W 009°04'5 9.7
2017-May-18 18:00N 38°12' W 009°07'5 9.5
2017-May-18 17:30N 38°16' W 009°10'5 9.8
2017-May-18 17:00N 38°20' W 009°14'5 9.9
2017-May-18 16:30N 38°24' W 009°17'5 9.7
2017-May-18 16:01N 38°29' W 009°20'5 9.3
2017-May-18 15:30N 38°33' W 009°22'4 8.3
2017-May-18 15:00N 38°37' W 009°23'5 9.9
2017-May-18 14:30N 38°40' W 009°18'7 7.0
2017-May-18 13:30N 38°42' W 009°10'0 0.0
2017-May-18 13:00N 38°42' W 009°10'0 0.0
2017-May-18 12:30N 38°42' W 009°10'0 0.0
2017-May-18 11:59N 38°42' W 009°10'0 0.0
2017-May-18 11:30N 38°42' W 009°10'0 0.0
2017-May-18 11:00N 38°42' W 009°10'0 0.0
2017-May-18 10:30N 38°42' W 009°10'0 0.0
2017-May-18 10:00N 38°42' W 009°10'0 0.0
2017-May-18 09:30N 38°42' W 009°10'0 0.0
2017-May-18 09:00N 38°42' W 009°10'0 0.0
2017-May-18 08:30N 38°42' W 009°10'1 1.5
2017-May-18 08:00N 38°42' W 009°09'4 8.2
2017-May-18 07:30N 38°41' W 009°04'1 2.0
2017-May-18 07:00N 38°41' W 009°05'4 7.3
2017-May-18 06:30N 38°42' W 009°09'0 0.8
2017-May-18 06:00N 38°42' W 009°10'0 0.0
2017-May-18 05:30N 38°42' W 009°10'0 0.0
2017-May-18 04:59N 38°42' W 009°10'0 0.0
2017-May-18 04:30N 38°42' W 009°10'0 0.0
2017-May-18 04:00N 38°42' W 009°10'0 0.0
2017-May-18 03:30N 38°42' W 009°10'0 0.0
2017-May-18 03:00N 38°42' W 009°10'0 0.0
2017-May-18 02:30N 38°42' W 009°10'0 0.0
2017-May-18 02:00N 38°42' W 009°10'0 0.0
2017-May-18 01:30N 38°42' W 009°10'0 0.0
2017-May-18 00:59N 38°42' W 009°10'0 0.0
2017-May-18 00:29N 38°42' W 009°10'0 0.3
2017-May-17 23:59N 38°42' W 009°09'1 1.2
2017-May-17 23:30N 38°42' W 009°10'0 0.9
2017-May-17 23:00N 38°42' W 009°10'0 0.0
2017-May-17 22:30N 38°42' W 009°10'0 0.0
2017-May-17 22:00N 38°42' W 009°10'0 0.0
2017-May-17 21:30N 38°42' W 009°10'0 0.0
2017-May-17 21:00N 38°42' W 009°10'0 0.0
2017-May-17 20:30N 38°42' W 009°10'0 0.0
2017-May-17 20:00N 38°42' W 009°10'0 0.0
2017-May-17 19:30N 38°42' W 009°10'0 0.0
2017-May-17 19:00N 38°42' W 009°10'0 0.0
2017-May-17 18:30N 38°42' W 009°10'0 0.0
2017-May-17 18:00N 38°42' W 009°10'0 0.0
2017-May-17 17:30N 38°42' W 009°10'0 0.0
2017-May-17 17:00N 38°42' W 009°10'0 0.6
2017-May-17 16:30N 38°42' W 009°10'1 1.1
2017-May-17 16:00N 38°41' W 009°10'1 1.1
2017-May-17 15:30N 38°42' W 009°10'0 0.9
2017-May-17 15:00N 38°42' W 009°10'0 0.0
2017-May-17 14:00N 38°42' W 009°10'0 0.0
2017-May-17 13:30N 38°42' W 009°10'0 0.0
2017-May-17 13:00N 38°42' W 009°10'0 0.0
2017-May-17 12:30N 38°42' W 009°10'0 0.0
2017-May-17 12:00N 38°42' W 009°10'0 0.0
2017-May-17 11:30N 38°42' W 009°10'0 0.0
2017-May-17 11:00N 38°42' W 009°10'0 0.0
2017-May-17 10:30N 38°42' W 009°10'0 0.0
2017-May-17 10:00N 38°42' W 009°10'0 0.0
2017-May-17 09:30N 38°42' W 009°10'1 1.5
2017-May-17 09:00N 38°42' W 009°11'1 1.5
2017-May-17 08:30N 38°42' W 009°10'0 0.0
2017-May-17 08:00N 38°42' W 009°10'0 0.0
2017-May-17 07:30N 38°42' W 009°10'0 0.0
2017-May-17 07:00N 38°42' W 009°10'2 3.9
2017-May-17 06:30N 38°40' W 009°08'0 0.4
2017-May-17 06:00N 38°40' W 009°09'0 0.0
2017-May-17 05:30N 38°40' W 009°09'2 3.8
2017-May-17 05:00N 38°42' W 009°09'0 0.3
2017-May-17 04:30N 38°42' W 009°10'0 0.0
2017-May-17 04:00N 38°42' W 009°10'0 0.0
2017-May-17 03:30N 38°42' W 009°10'0 0.0
2017-May-17 03:00N 38°42' W 009°10'0 0.0
2017-May-17 02:30N 38°42' W 009°10'0 0.0
2017-May-17 02:00N 38°42' W 009°10'0 0.0
2017-May-17 01:30N 38°42' W 009°10'0 0.0
2017-May-17 01:00N 38°42' W 009°10'0 0.0
2017-May-17 00:30N 38°42' W 009°10'0 0.0
2017-May-17 00:00N 38°42' W 009°10'0 0.0
2017-May-16 23:30N 38°42' W 009°10'0 0.0
2017-May-16 23:00N 38°42' W 009°10'0 0.0
2017-May-16 22:30N 38°42' W 009°10'0 0.0
2017-May-16 22:00N 38°42' W 009°10'0 0.0
2017-May-16 21:30N 38°42' W 009°10'0 0.0
2017-May-16 21:00N 38°42' W 009°10'0 0.0
2017-May-16 20:30N 38°42' W 009°10'0 0.0
2017-May-16 20:00N 38°42' W 009°10'0 0.0
2017-May-16 19:30N 38°42' W 009°10'0 0.0
2017-May-16 19:00N 38°42' W 009°10'0 0.0
2017-May-16 18:30N 38°42' W 009°10'0 0.0
2017-May-16 18:00N 38°42' W 009°10'0 0.0
2017-May-16 17:30N 38°42' W 009°10'0 0.0
2017-May-16 17:00N 38°42' W 009°10'0 0.0
2017-May-16 16:30N 38°42' W 009°10'0 0.0
2017-May-16 16:00N 38°42' W 009°10'0 0.0
2017-May-16 15:30N 38°42' W 009°10'0 0.0
2017-May-16 15:00N 38°42' W 009°10'0 0.0
2017-May-16 14:30N 38°42' W 009°10'0 0.0
2017-May-16 13:30N 38°42' W 009°10'0 0.0
2017-May-16 13:00N 38°42' W 009°10'0 0.0
2017-May-16 12:30N 38°42' W 009°10'0 0.0
2017-May-16 12:00N 38°42' W 009°10'0 0.0
2017-May-16 11:30N 38°42' W 009°10'0 0.0
2017-May-16 11:00N 38°42' W 009°10'0 0.0
2017-May-16 10:30N 38°42' W 009°10'0 0.0
2017-May-16 10:00N 38°42' W 009°10'0 0.0
2017-May-16 09:30N 38°42' W 009°10'0 0.0
2017-May-16 09:00N 38°42' W 009°10'0 0.0
2017-May-16 08:30N 38°42' W 009°10'0 0.0
2017-May-16 08:00N 38°42' W 009°10'0 0.0
2017-May-16 07:30N 38°42' W 009°10'0 0.0
2017-May-16 07:00N 38°42' W 009°10'0 0.0
2017-May-16 06:30N 38°42' W 009°10'0 0.0
2017-May-16 06:00N 38°42' W 009°10'0 0.0
2017-May-16 05:30N 38°42' W 009°10'0 0.0
2017-May-16 05:00N 38°42' W 009°10'0 0.0
2017-May-16 04:30N 38°42' W 009°10'0 0.0
2017-May-16 04:00N 38°42' W 009°10'0 0.0
2017-May-16 03:30N 38°42' W 009°10'0 0.0
2017-May-16 03:00N 38°42' W 009°10'0 0.0
2017-May-16 02:30N 38°42' W 009°10'0 0.0
2017-May-16 02:00N 38°42' W 009°10'0 0.0
2017-May-16 01:30N 38°42' W 009°10'0 0.0
2017-May-16 01:00N 38°42' W 009°10'0 0.0
2017-May-16 00:30N 38°42' W 009°10'0 0.0
2017-May-16 00:00N 38°42' W 009°10'0 0.0
2017-May-15 23:30N 38°42' W 009°10'0 0.0
2017-May-15 23:00N 38°42' W 009°10'0 0.0
2017-May-15 22:30N 38°42' W 009°10'0 0.0
2017-May-15 22:00N 38°42' W 009°10'0 0.0
2017-May-15 21:30N 38°42' W 009°10'0 0.0
2017-May-15 21:00N 38°42' W 009°10'0 0.0
2017-May-15 20:30N 38°42' W 009°10'0 0.0
2017-May-15 20:00N 38°42' W 009°10'0 0.0
2017-May-15 19:30N 38°42' W 009°10'0 0.0
2017-May-15 19:00N 38°42' W 009°10'0 0.0
2017-May-15 18:30N 38°42' W 009°10'0 0.0
2017-May-15 17:59N 38°42' W 009°10'0 0.0
2017-May-15 17:30N 38°42' W 009°10'0 0.0
2017-May-15 17:00N 38°42' W 009°10'0 0.0
2017-May-15 16:30N 38°42' W 009°10'0 0.1
2017-May-15 15:23N 38°42' W 009°10'0 0.2
2017-May-15 15:00N 38°42' W 009°10'0 0.0
2017-May-15 13:59N 38°42' W 009°10'0 0.0
2017-May-15 13:30N 38°42' W 009°10'0 0.0
2017-May-15 13:00N 38°42' W 009°10'0 0.0
2017-May-15 12:31N 38°42' W 009°10'0 0.0
2017-May-15 12:00N 38°42' W 009°10'0 0.0
2017-May-15 11:30N 38°42' W 009°10'2 3.2
2017-May-15 11:01N 38°41' W 009°08'1 1.7
2017-May-15 10:30N 38°40' W 009°09'2 3.6
2017-May-15 10:00N 38°42' W 009°09'0 0.5
2017-May-15 09:30N 38°42' W 009°10'0 0.0
2017-May-15 09:00N 38°42' W 009°10'0 0.0
2017-May-15 08:30N 38°42' W 009°10'0 0.0
2017-May-15 08:00N 38°42' W 009°10'0 0.0
2017-May-15 07:30N 38°42' W 009°10'0 0.0
2017-May-15 07:00N 38°42' W 009°10'0 0.0
2017-May-15 06:30N 38°42' W 009°10'0 0.9
2017-May-15 06:00N 38°42' W 009°10'1 2.3
2017-May-15 05:30N 38°41' W 009°11'0 0.1
2017-May-15 05:00N 38°41' W 009°11'1 1.6
2017-May-15 04:30N 38°41' W 009°12'1 1.9
2017-May-15 04:00N 38°41' W 009°11'1 2.4
2017-May-15 03:31N 38°42' W 009°10'0 0.0
2017-May-15 03:01N 38°42' W 009°10'0 0.0
2017-May-15 02:30N 38°42' W 009°10'0 0.0
2017-May-15 02:00N 38°42' W 009°10'0 0.0
2017-May-15 01:30N 38°42' W 009°10'0 0.0
2017-May-15 01:00N 38°42' W 009°10'0 0.0
2017-May-15 00:30N 38°42' W 009°10'0 0.0
2017-May-15 00:00N 38°42' W 009°10'0 0.0
2017-May-14 23:31N 38°42' W 009°10'0 0.0
2017-May-14 23:00N 38°42' W 009°10'0 0.0
2017-May-14 22:30N 38°42' W 009°10'0 0.0
2017-May-14 22:00N 38°42' W 009°10'0 0.2
2017-May-14 21:30N 38°42' W 009°09'  

Dump ship's entire track history